Time;durP1;ratioP1;P1;durP2;ratioP2;P2;SDS_P1;SDS_P2;PMS_P1;PMS_P2;Temp;Humidity;BMP_temperature;BMP_pressure;BME280_temperature;BME280_humidity;BME280_pressure;Samples;Min_cycle;Max_cycle;Signal;HPM_P1;HPM_P2
2021/03/16 00:02:04;;;;;;;4.40;0.60;;;6.90;91.00;;;;;;4896194;29;20401;-73
2021/03/16 00:04:35;;;;;;;5.80;1.27;;;6.90;91.00;;;;;;4896526;29;20052;-74
2021/03/16 00:07:20;;;;;;;3.80;0.50;;;6.90;91.10;;;;;;4895571;29;20057;-74
2021/03/16 00:09:47;;;;;;;5.70;0.87;;;6.90;91.10;;;;;;4898307;29;20049;-75
2021/03/16 00:12:13;;;;;;;11.03;0.70;;;6.90;91.40;;;;;;4895491;29;20052;-76
2021/03/16 00:14:40;;;;;;;6.60;0.97;;;6.90;91.10;;;;;;4897838;29;20040;-73
2021/03/16 00:17:07;;;;;;;7.27;1.00;;;6.90;90.90;;;;;;4898174;29;20045;-75
2021/03/16 00:19:34;;;;;;;7.33;0.90;;;6.80;90.90;;;;;;4896946;29;20049;-75
2021/03/16 00:22:02;;;;;;;6.57;0.80;;;6.90;90.90;;;;;;4891128;29;20101;-75
2021/03/16 00:24:29;;;;;;;7.67;0.90;;;6.80;90.90;;;;;;4906202;29;20045;-75
2021/03/16 00:26:55;;;;;;;5.77;0.90;;;6.80;90.90;;;;;;4898118;29;20374;-74
2021/03/16 00:29:22;;;;;;;9.00;1.10;;;6.70;90.90;;;;;;4897923;29;20040;-74
2021/03/16 00:31:49;;;;;;;5.80;0.63;;;6.70;90.90;;;;;;4885384;29;20041;-74
2021/03/16 00:34:15;;;;;;;15.17;1.43;;;6.70;90.90;;;;;;4896654;29;20037;-75
2021/03/16 00:36:43;;;;;;;7.17;0.93;;;6.70;91.00;;;;;;4896599;29;20138;-74
2021/03/16 00:39:09;;;;;;;7.10;0.70;;;6.70;90.90;;;;;;4898122;29;20040;-73
2021/03/16 00:41:36;;;;;;;4.43;0.50;;;6.70;90.90;;;;;;4897961;29;20051;-74
2021/03/16 00:44:03;;;;;;;3.67;0.57;;;6.70;91.00;;;;;;4885059;29;20036;-74
2021/03/16 00:46:32;;;;;;;3.37;0.60;;;6.80;91.10;;;;;;4897428;29;20095;-74
2021/03/16 00:49:00;;;;;;;3.95;0.68;;;6.80;91.10;;;;;;4896666;29;20049;-73
2021/03/16 00:51:28;;;;;;;8.87;0.97;;;6.80;91.10;;;;;;4895391;29;20100;-74
2021/03/16 00:53:55;;;;;;;8.20;1.10;;;6.80;90.90;;;;;;4895299;29;20127;-74
2021/03/16 00:56:23;;;;;;;8.88;0.85;;;6.80;91.00;;;;;;4881212;29;20089;-73
2021/03/16 00:58:49;;;;;;;7.68;0.80;;;6.80;91.00;;;;;;4897868;29;20070;-74
2021/03/16 01:01:16;;;;;;;4.33;0.50;;;6.70;91.00;;;;;;4896939;29;20110;-74
2021/03/16 01:03:43;;;;;;;6.68;0.93;;;6.70;91.00;;;;;;4898108;29;20041;-74
2021/03/16 01:06:09;;;;;;;5.30;0.43;;;6.60;91.10;;;;;;4897741;29;20059;-74
2021/03/16 01:08:36;;;;;;;5.97;0.80;;;6.60;91.10;;;;;;4897088;29;20053;-74
2021/03/16 01:11:03;;;;;;;7.03;0.57;;;6.60;91.00;;;;;;4897863;29;20051;-73
2021/03/16 01:13:31;;;;;;;5.43;0.83;;;6.50;91.00;;;;;;4897907;29;20055;-74
2021/03/16 01:15:59;;;;;;;6.23;0.83;;;6.50;91.00;;;;;;4897717;29;20393;-74
2021/03/16 01:18:26;;;;;;;6.97;1.23;;;6.50;90.90;;;;;;4896390;29;20108;-74
2021/03/16 01:20:53;;;;;;;6.60;0.95;;;6.50;90.90;;;;;;4897713;29;20115;-73
2021/03/16 01:23:20;;;;;;;8.27;0.70;;;6.50;90.70;;;;;;4897517;29;20073;-74
2021/03/16 01:26:03;;;;;;;4.57;0.67;;;6.50;90.80;;;;;;4896174;29;20382;-74
2021/03/16 01:28:30;;;;;;;5.20;2.30;;;6.60;90.70;;;;;;4897696;29;20044;-74
2021/03/16 01:30:57;;;;;;;5.37;0.60;;;6.60;90.80;;;;;;4896546;29;20048;-73
2021/03/16 01:33:24;;;;;;;2.63;0.37;;;6.60;90.70;;;;;;4897994;29;20127;-73
2021/03/16 01:35:51;;;;;;;5.82;0.50;;;6.60;90.80;;;;;;4881027;29;20040;-74
2021/03/16 01:38:18;;;;;;;4.07;0.40;;;6.60;90.80;;;;;;4897659;29;20048;-74
2021/03/16 01:40:44;;;;;;;7.80;0.80;;;6.60;90.80;;;;;;4896512;29;20045;-74
2021/03/16 01:43:21;;;;;;;2.97;0.83;;;6.70;90.70;;;;;;4895446;29;20140;-70
2021/03/16 01:45:49;;;;;;;5.40;0.30;;;6.70;90.60;;;;;;4867173;29;20075;-70
2021/03/16 01:48:33;;;;;;;2.75;0.45;;;6.70;90.60;;;;;;4877847;29;20072;-70
2021/03/16 01:51:01;;;;;;;8.80;0.60;;;6.70;90.60;;;;;;4880424;29;20408;-74
2021/03/16 01:53:28;;;;;;;8.40;1.20;;;6.70;90.50;;;;;;4897511;29;20084;-74
2021/03/16 01:55:57;;;;;;;5.30;0.70;;;6.70;90.50;;;;;;4896277;29;20067;-74
2021/03/16 01:58:44;;;;;;;3.20;0.70;;;6.70;90.50;;;;;;4892527;29;20064;-74
2021/03/16 02:01:29;;;;;;;1.77;0.30;;;6.70;90.70;;;;;;4887642;29;20100;-74
2021/03/16 02:04:14;;;;;;;6.47;0.53;;;6.70;90.70;;;;;;4897791;29;20051;-74
2021/03/16 02:07:28;;;;;;;4.27;0.60;;;6.70;90.50;;;;;;4883757;29;20075;-74
2021/03/16 02:10:27;;;;;;;4.55;0.73;;;6.70;90.60;;;;;;4893638;29;20077;-74
2021/03/16 02:13:20;;;;;;;5.20;1.02;;;6.60;90.70;;;;;;4887177;29;20080;-74
2021/03/16 02:16:21;;;;;;;3.50;0.40;;;6.50;90.70;;;;;;4897370;29;20501;-74
2021/03/16 02:19:18;;;;;;;3.42;0.75;;;6.50;90.90;;;;;;4896366;29;20052;-74
2021/03/16 02:22:03;;;;;;;2.90;0.30;;;6.50;90.90;;;;;;4897117;29;20055;-74
2021/03/16 02:25:13;;;;;;;6.63;1.40;;;6.50;91.10;;;;;;4896608;29;20059;-74
2021/03/16 02:28:21;;;;;;;6.47;0.70;;;6.60;90.90;;;;;;4894487;29;20063;-74
2021/03/16 02:31:07;;;;;;;6.63;0.93;;;6.60;90.70;;;;;;4899613;29;20131;-73
2021/03/16 02:33:55;;;;;;;6.70;0.70;;;6.60;90.50;;;;;;4900007;29;20388;-76
2021/03/16 02:36:42;;;;;;;3.17;0.87;;;6.60;90.50;;;;;;4900354;29;20043;-76
2021/03/16 02:39:28;;;;;;;3.30;0.57;;;6.60;90.60;;;;;;4899743;29;20119;-76
2021/03/16 02:42:15;;;;;;;3.53;0.60;;;6.60;90.50;;;;;;4897629;29;20161;-75
2021/03/16 02:45:03;;;;;;;2.93;1.13;;;6.60;90.50;;;;;;4881580;29;20528;-74
2021/03/16 02:47:50;;;;;;;4.13;1.10;;;6.70;90.40;;;;;;4886818;29;20073;-74
2021/03/16 02:50:36;;;;;;;6.93;0.60;;;6.60;90.40;;;;;;4891692;29;20083;-74
2021/03/16 02:53:22;;;;;;;6.77;1.03;;;6.70;90.50;;;;;;4898438;29;20600;-74
2021/03/16 02:56:08;;;;;;;3.40;0.50;;;6.70;90.40;;;;;;4897273;29;20075;-74
2021/03/16 02:58:57;;;;;;;4.07;0.40;;;6.70;90.50;;;;;;4899618;29;20056;-74
2021/03/16 03:01:44;;;;;;;6.93;0.60;;;6.70;90.30;;;;;;4897917;29;20052;-74
2021/03/16 03:04:33;;;;;;;2.53;0.30;;;6.70;90.40;;;;;;4898184;29;20079;-70
2021/03/16 03:07:20;;;;;;;4.67;0.47;;;6.70;90.50;;;;;;4888392;29;20115;-70
2021/03/16 03:10:06;;;;;;;4.00;0.40;;;6.70;90.60;;;;;;4890555;29;20184;-70
2021/03/16 03:12:52;;;;;;;3.15;0.30;;;6.70;90.60;;;;;;4897721;29;20059;-70
2021/03/16 03:15:37;;;;;;;2.70;0.40;;;6.70;90.60;;;;;;4894463;29;20059;-70
2021/03/16 03:18:22;;;;;;;4.38;0.75;;;6.70;90.60;;;;;;4896622;29;20060;-70
2021/03/16 03:21:18;;;;;;;7.32;1.20;;;6.70;90.60;;;;;;4887483;29;20068;-70
2021/03/16 03:24:09;;;;;;;4.40;0.40;;;6.70;90.40;;;;;;4898057;29;20055;-70
2021/03/16 03:27:07;;;;;;;1.47;0.37;;;6.70;90.50;;;;;;4894770;29;20063;-70
2021/03/16 03:29:54;;;;;;;5.10;0.97;;;6.70;90.60;;;;;;4890911;29;20071;-70
2021/03/16 03:32:41;;;;;;;5.32;0.38;;;6.70;90.50;;;;;;4893716;29;20108;-70
2021/03/16 03:35:29;;;;;;;2.13;0.50;;;6.70;90.50;;;;;;4887568;29;20533;-70
2021/03/16 03:38:15;;;;;;;3.78;0.65;;;6.70;90.60;;;;;;4897572;29;20059;-70
2021/03/16 03:41:03;;;;;;;6.22;0.40;;;6.70;90.60;;;;;;4885854;29;20107;-70
2021/03/16 03:43:49;;;;;;;2.10;0.30;;;6.70;90.50;;;;;;4891282;29;20051;-70
2021/03/16 03:46:35;;;;;;;4.20;0.50;;;6.70;90.50;;;;;;4890690;29;20066;-70
2021/03/16 03:49:21;;;;;;;5.10;0.40;;;6.70;90.50;;;;;;4895952;29;20139;-70
2021/03/16 03:52:10;;;;;;;4.35;0.38;;;6.70;90.50;;;;;;4879745;29;20519;-70
2021/03/16 03:54:55;;;;;;;3.03;0.43;;;6.60;90.50;;;;;;4883994;29;20111;-70
2021/03/16 03:57:41;;;;;;;1.85;0.22;;;6.60;90.70;;;;;;4897752;29;20100;-70
2021/03/16 04:00:27;;;;;;;5.80;0.63;;;6.60;90.70;;;;;;4887094;29;20561;-70
2021/03/16 04:03:12;;;;;;;3.72;0.47;;;6.60;90.70;;;;;;4895576;29;20417;-70
2021/03/16 04:05:59;;;;;;;3.07;0.40;;;6.60;90.60;;;;;;4892393;29;20449;-70
2021/03/16 04:08:45;;;;;;;5.23;0.60;;;6.60;90.50;;;;;;4891811;29;20553;-70
2021/03/16 04:11:30;;;;;;;5.13;0.70;;;6.60;90.40;;;;;;4895841;29;20063;-70
2021/03/16 04:14:16;;;;;;;7.53;0.90;;;6.60;90.30;;;;;;4888487;29;20059;-70
2021/03/16 04:17:01;;;;;;;2.40;0.80;;;6.60;90.40;;;;;;4884924;29;20172;-70
2021/03/16 04:19:50;;;;;;;4.90;0.73;;;6.60;90.50;;;;;;4891175;29;20704;-70
2021/03/16 04:22:36;;;;;;;3.90;0.50;;;6.60;90.50;;;;;;4879169;29;20188;-70
2021/03/16 04:25:21;;;;;;;3.80;0.55;;;6.60;90.50;;;;;;4888399;29;20462;-70
2021/03/16 04:28:06;;;;;;;3.40;0.50;;;6.60;90.50;;;;;;4893319;29;20064;-70
2021/03/16 04:30:53;;;;;;;5.22;0.50;;;6.60;90.50;;;;;;4892356;29;20176;-70
2021/03/16 04:33:38;;;;;;;5.18;0.65;;;6.60;90.40;;;;;;4892186;29;20061;-70
2021/03/16 04:36:24;;;;;;;4.23;0.70;;;6.60;90.50;;;;;;4878674;29;20055;-70
2021/03/16 04:39:08;;;;;;;3.60;0.93;;;6.60;90.40;;;;;;4894032;29;20636;-70
2021/03/16 04:41:53;;;;;;;4.83;0.70;;;6.60;90.50;;;;;;4889220;29;20048;-70
2021/03/16 04:44:39;;;;;;;3.47;0.47;;;6.60;90.50;;;;;;4884144;29;20116;-70
2021/03/16 04:47:24;;;;;;;7.73;0.80;;;6.60;90.60;;;;;;4895138;29;20115;-70
2021/03/16 04:50:10;;;;;;;5.50;0.90;;;6.60;90.50;;;;;;4889062;29;20169;-70
2021/03/16 04:52:55;;;;;;;3.63;0.47;;;6.60;90.60;;;;;;4857089;29;20544;-70
2021/03/16 04:55:40;;;;;;;6.73;0.60;;;6.60;90.70;;;;;;4882901;29;20071;-69
2021/03/16 04:58:25;;;;;;;6.53;0.83;;;6.50;90.60;;;;;;4886166;29;20064;-71
2021/03/16 05:01:11;;;;;;;6.33;0.60;;;6.50;90.60;;;;;;4888951;29;20180;-70
2021/03/16 05:03:56;;;;;;;6.23;0.60;;;6.50;90.60;;;;;;4878593;29;20056;-70
2021/03/16 05:06:41;;;;;;;4.57;1.05;;;6.50;90.70;;;;;;4884937;29;20054;-70
2021/03/16 05:09:26;;;;;;;7.97;1.63;;;6.50;90.80;;;;;;4895269;29;20083;-70
2021/03/16 05:12:11;;;;;;;4.40;0.73;;;6.50;90.80;;;;;;4895061;29;20153;-70
2021/03/16 05:14:56;;;;;;;4.27;0.60;;;6.50;90.90;;;;;;4893115;29;20181;-70
2021/03/16 05:17:42;;;;;;;4.30;0.70;;;6.50;90.90;;;;;;4894103;29;20108;-70
2021/03/16 05:20:27;;;;;;;6.53;0.63;;;6.50;90.80;;;;;;4889676;29;20422;-70
2021/03/16 05:23:12;;;;;;;4.20;0.60;;;6.50;90.80;;;;;;4885734;29;21043;-70
2021/03/16 05:25:57;;;;;;;5.37;0.60;;;6.60;90.90;;;;;;4895231;29;20051;-70
2021/03/16 05:28:42;;;;;;;6.47;0.73;;;6.50;90.90;;;;;;4891970;29;20059;-70
2021/03/16 05:31:28;;;;;;;8.00;1.23;;;6.50;90.90;;;;;;4890147;29;20060;-70
2021/03/16 05:34:13;;;;;;;4.47;0.60;;;6.50;90.90;;;;;;4894132;29;20402;-70
2021/03/16 05:36:58;;;;;;;3.87;0.60;;;6.50;90.90;;;;;;4894029;29;20056;-70
2021/03/16 05:39:43;;;;;;;4.53;0.70;;;6.50;90.80;;;;;;4879523;29;20713;-70
2021/03/16 05:42:30;;;;;;;6.53;1.00;;;6.50;90.90;;;;;;4888643;29;20116;-70
2021/03/16 05:45:16;;;;;;;7.00;1.13;;;6.50;90.90;;;;;;4894014;29;20060;-70
2021/03/16 05:48:01;;;;;;;9.10;0.87;;;6.50;90.90;;;;;;4895872;29;20055;-70
2021/03/16 05:50:47;;;;;;;3.60;0.60;;;6.50;90.90;;;;;;4889109;29;20189;-70
2021/03/16 05:53:33;;;;;;;5.23;0.80;;;6.50;91.00;;;;;;4895597;29;20059;-70
2021/03/16 05:56:18;;;;;;;5.60;0.70;;;6.60;91.10;;;;;;4890836;29;20052;-70
2021/03/16 05:59:04;;;;;;;16.70;1.77;;;6.50;90.90;;;;;;4879948;29;20081;-70
2021/03/16 06:01:49;;;;;;;7.27;1.33;;;6.50;90.90;;;;;;4889486;29;20055;-70
2021/03/16 06:04:34;;;;;;;5.93;0.73;;;6.50;91.00;;;;;;4894611;29;20055;-70
2021/03/16 06:07:19;;;;;;;5.60;1.07;;;6.50;91.10;;;;;;4896225;29;20139;-70
2021/03/16 06:10:05;;;;;;;5.77;0.87;;;6.50;91.10;;;;;;4873958;29;20528;-73
2021/03/16 06:12:50;;;;;;;4.80;0.87;;;6.50;91.10;;;;;;4900884;29;20054;-74
2021/03/16 06:15:36;;;;;;;7.77;0.70;;;6.50;91.10;;;;;;4901242;29;20059;-74
2021/03/16 06:18:28;;;;;;;6.57;1.17;;;6.60;91.10;;;;;;4896238;29;20532;-70
2021/03/16 06:21:19;;;;;;;4.00;0.50;;;6.60;91.20;;;;;;4898468;29;20528;-70
2021/03/16 06:24:05;;;;;;;7.43;1.23;;;6.70;91.10;;;;;;4899618;29;20115;-73
2021/03/16 06:26:50;;;;;;;5.83;0.63;;;6.70;91.10;;;;;;4899614;29;20051;-75
2021/03/16 06:29:42;;;;;;;3.53;0.90;;;6.70;91.10;;;;;;4899674;29;20051;-74
2021/03/16 06:32:35;;;;;;;4.53;1.13;;;6.80;91.10;;;;;;4899580;29;20581;-74
2021/03/16 06:35:21;;;;;;;7.28;0.63;;;6.80;91.20;;;;;;4896660;29;20532;-70
2021/03/16 06:38:09;;;;;;;7.93;0.80;;;6.70;91.20;;;;;;4892513;29;20111;-70
2021/03/16 06:40:55;;;;;;;5.67;0.83;;;6.70;91.20;;;;;;4899480;29;20092;-70
2021/03/16 06:43:42;;;;;;;3.42;1.00;;;6.70;91.20;;;;;;4882565;29;20077;-70
2021/03/16 06:46:36;;;;;;;4.43;1.07;;;6.70;91.20;;;;;;4892764;29;20244;-70
2021/03/16 06:49:23;;;;;;;6.07;0.77;;;6.80;91.20;;;;;;4895139;29;20123;-70
2021/03/16 06:52:12;;;;;;;1.30;0.30;;;6.80;91.30;;;;;;4882902;29;20552;-70
2021/03/16 06:55:09;;;;;;;4.10;0.52;;;6.80;91.50;;;;;;4881160;29;20056;-70
2021/03/16 06:58:08;;;;;;;6.10;0.60;;;6.70;91.40;;;;;;4887687;29;20052;-70
2021/03/16 07:01:04;;;;;;;3.80;0.40;;;6.70;91.60;;;;;;4891493;29;20063;-70
2021/03/16 07:03:50;;;;;;;2.95;0.55;;;6.70;91.70;;;;;;4891526;29;20524;-70
2021/03/16 07:06:36;;;;;;;2.13;0.33;;;6.60;91.70;;;;;;4898278;29;20416;-70
2021/03/16 07:09:21;;;;;;;2.23;0.37;;;6.60;91.80;;;;;;4894009;29;20060;-70
2021/03/16 07:12:08;;;;;;;5.33;0.30;;;6.70;91.90;;;;;;4888995;29;20239;-70
2021/03/16 07:14:55;;;;;;;2.07;0.30;;;6.70;91.90;;;;;;4892603;29;20071;-70
2021/03/16 07:17:43;;;;;;;1.60;0.30;;;6.70;92.00;;;;;;4896552;29;20055;-70
2021/03/16 07:20:34;;;;;;;3.30;0.57;;;6.70;92.00;;;;;;4898470;29;20197;-73
2021/03/16 07:23:22;;;;;;;3.78;0.35;;;6.80;92.00;;;;;;4897504;29;20047;-73
2021/03/16 07:26:08;;;;;;;1.17;0.40;;;6.90;92.00;;;;;;4898351;29;20063;-73
2021/03/16 07:28:53;;;;;;;3.53;0.30;;;7.00;92.00;;;;;;4897198;29;20075;-73
2021/03/16 07:31:42;;;;;;;2.05;0.32;;;7.10;92.00;;;;;;4894075;29;20055;-73
2021/03/16 07:34:28;;;;;;;1.73;0.35;;;7.10;91.90;;;;;;4899683;29;20059;-73
2021/03/16 07:37:14;;;;;;;3.80;0.73;;;7.20;92.20;;;;;;4899853;29;20060;-73
2021/03/16 07:40:05;;;;;;;5.00;0.67;;;7.20;91.70;;;;;;4885482;29;20122;-73
2021/03/16 07:42:50;;;;;;;5.80;0.80;;;7.20;91.70;;;;;;4899628;29;20051;-73
2021/03/16 07:45:36;;;;;;;3.60;0.60;;;7.30;91.60;;;;;;4898875;29;20055;-75
2021/03/16 07:48:22;;;;;;;2.72;0.50;;;7.30;91.60;;;;;;4898601;29;20059;-74
2021/03/16 07:51:13;;;;;;;4.30;0.50;;;7.40;91.70;;;;;;4897932;29;20408;-73
2021/03/16 07:54:05;;;;;;;7.17;0.60;;;7.50;91.60;;;;;;4899345;29;20409;-73
2021/03/16 07:57:01;;;;;;;6.05;1.15;;;7.60;91.60;;;;;;4879487;29;20060;-73
2021/03/16 07:59:57;;;;;;;5.18;0.60;;;7.60;91.50;;;;;;4897975;29;20063;-74
2021/03/16 08:02:44;;;;;;;3.53;0.67;;;7.60;91.40;;;;;;4898842;29;20079;-74
2021/03/16 08:05:40;;;;;;;7.68;0.70;;;7.70;91.40;;;;;;4899244;29;20580;-73
2021/03/16 08:08:25;;;;;;;12.60;2.25;;;7.70;91.40;;;;;;4886600;29;20144;-73
2021/03/16 08:11:12;;;;;;;6.95;1.02;;;7.70;91.10;;;;;;4897871;29;20111;-70
2021/03/16 08:13:59;;;;;;;3.83;0.50;;;7.70;91.10;;;;;;4896713;29;20531;-70
2021/03/16 08:16:45;;;;;;;6.20;1.20;;;7.80;91.20;;;;;;4897113;29;20131;-71
2021/03/16 08:19:38;;;;;;;3.50;0.82;;;7.80;91.30;;;;;;4896693;29;20153;-74
2021/03/16 08:22:28;;;;;;;8.90;1.13;;;7.80;90.90;;;;;;4896091;29;20052;-70
2021/03/16 08:25:15;;;;;;;3.55;0.68;;;7.80;90.80;;;;;;4901620;29;20510;-71
2021/03/16 08:28:07;;;;;;;4.68;0.65;;;7.90;90.90;;;;;;4895809;29;20067;-71
2021/03/16 08:30:53;;;;;;;3.17;0.60;;;8.00;90.90;;;;;;4896510;29;20179;-71
2021/03/16 08:33:39;;;;;;;4.93;0.50;;;8.00;91.00;;;;;;4896604;29;20120;-69
2021/03/16 08:36:25;;;;;;;10.98;2.08;;;8.10;90.90;;;;;;4897200;29;20151;-70
2021/03/16 08:39:19;;;;;;;5.20;0.60;;;8.10;90.90;;;;;;4883108;29;20052;-70
2021/03/16 08:42:04;;;;;;;4.28;0.50;;;8.10;90.80;;;;;;4897536;29;20081;-70
2021/03/16 08:44:51;;;;;;;2.50;0.68;;;8.10;90.70;;;;;;4896075;29;20060;-70
2021/03/16 08:47:36;;;;;;;4.57;1.42;;;8.20;90.80;;;;;;4896220;29;20414;-70
2021/03/16 08:50:27;;;;;;;6.03;0.70;;;8.30;90.70;;;;;;4896074;29;20585;-70
2021/03/16 08:53:15;;;;;;;4.53;0.70;;;8.30;90.50;;;;;;4897043;29;20139;-70
2021/03/16 08:56:01;;;;;;;9.98;1.50;;;8.30;90.10;;;;;;4897021;29;20059;-70
2021/03/16 08:58:48;;;;;;;6.03;0.73;;;8.30;89.80;;;;;;4896108;29;20060;-70
2021/03/16 09:01:34;;;;;;;7.97;1.00;;;8.30;89.50;;;;;;4895553;29;20629;-70
2021/03/16 09:04:20;;;;;;;4.72;0.85;;;8.30;89.60;;;;;;4895998;29;20144;-70
2021/03/16 09:07:05;;;;;;;2.63;0.40;;;8.40;89.80;;;;;;4887496;29;20064;-70
2021/03/16 09:09:51;;;;;;;5.10;0.82;;;8.50;90.00;;;;;;4882960;29;20059;-70
2021/03/16 09:12:41;;;;;;;4.72;0.63;;;8.60;89.50;;;;;;4891028;29;20051;-70
2021/03/16 09:15:29;;;;;;;5.85;1.05;;;8.60;89.50;;;;;;4897103;29;20177;-73
2021/03/16 09:18:15;;;;;;;6.63;1.15;;;8.60;88.90;;;;;;4893145;29;20116;-73
2021/03/16 09:21:05;;;;;;;8.20;1.52;;;8.60;87.70;;;;;;4885646;29;20052;-73
2021/03/16 09:23:51;;;;;;;6.22;1.40;;;8.70;87.80;;;;;;4894288;29;20056;-74
2021/03/16 09:26:36;;;;;;;2.90;0.50;;;8.70;88.00;;;;;;4893090;29;20063;-73
2021/03/16 09:29:24;;;;;;;3.03;0.50;;;8.90;88.30;;;;;;4891366;29;20136;-73
2021/03/16 09:32:14;;;;;;;6.60;1.20;;;9.00;87.10;;;;;;4897139;29;20176;-73
2021/03/16 09:34:59;;;;;;;5.72;1.17;;;9.00;86.70;;;;;;4891072;29;20511;-73
2021/03/16 09:37:46;;;;;;;3.65;0.95;;;9.00;86.50;;;;;;4883486;29;20112;-74
2021/03/16 09:40:33;;;;;;;6.43;0.70;;;9.00;87.00;;;;;;4901461;29;20054;-73
2021/03/16 09:43:15;;;;;;;2.70;0.43;;;9.00;86.10;;;;;;4899523;29;20055;-73
2021/03/16 09:45:53;;;;;;;4.07;0.80;;;9.00;86.70;;;;;;4890121;29;20455;-73
2021/03/16 09:48:21;;;;;;;7.20;0.95;;;9.00;86.10;;;;;;4893836;29;20108;-74
2021/03/16 09:50:50;;;;;;;7.15;0.88;;;8.90;85.30;;;;;;4895749;29;20072;-73
2021/03/16 09:53:19;;;;;;;4.18;0.70;;;8.90;85.30;;;;;;4883015;29;20067;-73
2021/03/16 09:56:00;;;;;;;3.17;0.80;;;8.90;85.70;;;;;;4898798;29;20072;-74
2021/03/16 09:58:30;;;;;;;4.72;0.70;;;8.90;86.30;;;;;;4899222;29;20040;-74
2021/03/16 10:01:02;;;;;;;1.80;0.30;;;8.90;86.20;;;;;;4883686;29;20630;-73
2021/03/16 10:03:29;;;;;;;5.07;0.88;;;9.00;86.50;;;;;;4900284;29;20044;-73
2021/03/16 10:06:07;;;;;;;2.95;0.50;;;9.00;86.40;;;;;;4899839;29;20041;-73
2021/03/16 10:08:35;;;;;;;3.60;0.80;;;9.00;86.60;;;;;;4883291;29;20163;-73
2021/03/16 10:11:05;;;;;;;2.17;0.28;;;9.10;86.70;;;;;;4882066;29;20060;-70
2021/03/16 10:13:41;;;;;;;5.20;0.90;;;9.10;86.40;;;;;;4896716;29;20045;-70
2021/03/16 10:16:12;;;;;;;3.17;0.50;;;9.30;86.00;;;;;;4887307;29;20041;-70
2021/03/16 10:18:44;;;;;;;2.75;0.40;;;9.30;86.10;;;;;;4897904;29;20052;-70
2021/03/16 10:21:15;;;;;;;2.80;0.47;;;9.40;86.00;;;;;;4895365;29;20176;-70
2021/03/16 10:23:45;;;;;;;3.10;0.50;;;9.50;85.90;;;;;;4895033;29;20041;-70
2021/03/16 10:26:12;;;;;;;2.17;0.43;;;9.50;85.30;;;;;;4895380;29;20115;-69
2021/03/16 10:28:43;;;;;;;6.35;0.70;;;9.60;85.30;;;;;;4895413;29;20052;-70
2021/03/16 10:31:19;;;;;;;7.30;1.35;;;9.70;85.30;;;;;;4892711;29;20045;-70
2021/03/16 10:33:49;;;;;;;4.70;0.85;;;9.70;83.30;;;;;;4893773;29;20056;-70
2021/03/16 10:36:16;;;;;;;3.00;0.40;;;9.60;84.30;;;;;;4897303;29;20047;-70
2021/03/16 10:38:48;;;;;;;3.95;0.60;;;9.70;84.20;;;;;;4899213;29;20053;-69
2021/03/16 10:41:19;;;;;;;4.10;0.45;;;9.70;84.20;;;;;;4897830;29;20493;-70
2021/03/16 10:43:46;;;;;;;6.10;1.02;;;9.80;84.30;;;;;;4898074;29;20041;-70
2021/03/16 10:46:13;;;;;;;3.28;0.40;;;9.80;83.80;;;;;;4890366;29;20040;-69
2021/03/16 10:48:41;;;;;;;3.35;0.40;;;9.90;84.30;;;;;;4888891;29;20101;-70
2021/03/16 10:51:07;;;;;;;2.97;0.40;;;9.90;84.30;;;;;;4898471;29;20053;-70
2021/03/16 10:53:34;;;;;;;1.75;0.30;;;10.00;84.50;;;;;;4896873;29;20104;-70
2021/03/16 10:56:04;;;;;;;2.65;0.40;;;10.10;84.30;;;;;;4887662;29;20092;-70
2021/03/16 10:58:32;;;;;;;3.47;0.60;;;10.00;82.10;;;;;;4890364;29;20081;-69
2021/03/16 11:00:59;;;;;;;4.00;0.50;;;10.00;82.40;;;;;;4897890;29;20049;-69
2021/03/16 11:03:35;;;;;;;3.65;0.40;;;10.10;83.10;;;;;;4886634;29;20052;-70
2021/03/16 11:06:05;;;;;;;4.55;0.70;;;10.20;81.10;;;;;;4898558;29;20123;-70
2021/03/16 11:08:32;;;;;;;4.75;0.80;;;10.20;81.20;;;;;;4888580;29;20051;-70
2021/03/16 11:10:59;;;;;;;6.25;0.73;;;10.20;81.40;;;;;;4888937;29;20052;-70
2021/03/16 11:13:26;;;;;;;3.13;0.70;;;10.30;80.40;;;;;;4894500;29;20048;-70
2021/03/16 11:15:53;;;;;;;2.72;0.50;;;10.40;81.10;;;;;;4866333;29;20139;-70
2021/03/16 11:18:21;;;;;;;5.80;0.40;;;10.40;80.50;;;;;;4897053;29;20068;-70
2021/03/16 11:20:48;;;;;;;3.15;0.50;;;10.40;80.70;;;;;;4886863;29;20059;-70
2021/03/16 11:23:15;;;;;;;3.13;0.90;;;10.40;78.90;;;;;;4895440;29;20040;-70
2021/03/16 11:25:41;;;;;;;4.07;0.50;;;10.40;79.70;;;;;;4898561;29;20377;-70
2021/03/16 11:28:08;;;;;;;2.35;0.40;;;10.40;79.70;;;;;;4882635;29;20045;-70
2021/03/16 11:30:35;;;;;;;5.80;0.60;;;10.40;79.70;;;;;;4894656;29;20109;-70
2021/03/16 11:33:02;;;;;;;4.28;0.40;;;10.40;80.00;;;;;;4897081;29;20100;-69
2021/03/16 11:35:47;;;;;;;2.53;0.28;;;10.40;79.90;;;;;;4896580;29;20139;-70
2021/03/16 11:38:32;;;;;;;1.63;0.70;;;10.40;80.70;;;;;;4898396;29;20055;-69
2021/03/16 11:41:17;;;;;;;4.22;1.40;;;10.40;80.40;;;;;;4885890;29;20039;-70
2021/03/16 11:44:03;;;;;;;5.75;0.60;;;10.50;80.40;;;;;;4891609;29;20535;-70
2021/03/16 11:46:48;;;;;;;5.82;1.00;;;10.40;77.90;;;;;;4894092;29;20055;-69
2021/03/16 11:49:34;;;;;;;1.75;0.30;;;10.40;78.90;;;;;;4891844;29;20167;-70
2021/03/16 11:52:22;;;;;;;7.30;0.60;;;10.40;79.10;;;;;;4895931;29;20108;-70
2021/03/16 11:55:08;;;;;;;2.78;0.50;;;10.50;78.30;;;;;;4879024;29;20420;-70
2021/03/16 11:57:53;;;;;;;4.63;1.40;;;10.50;78.20;;;;;;4893582;29;20481;-70
2021/03/16 12:00:39;;;;;;;3.10;0.40;;;10.60;79.10;;;;;;4895564;29;20055;-69
2021/03/16 12:03:25;;;;;;;4.43;1.05;;;10.60;78.80;;;;;;4893083;29;20096;-71
2021/03/16 12:06:11;;;;;;;3.97;0.50;;;10.40;78.10;;;;;;4897798;29;20059;-69
2021/03/16 12:08:55;;;;;;;4.88;0.50;;;10.30;78.90;;;;;;4889409;29;20151;-70
2021/03/16 12:11:41;;;;;;;5.35;0.38;;;10.30;78.00;;;;;;4897595;29;20432;-69
2021/03/16 12:14:26;;;;;;;3.30;0.80;;;10.30;78.10;;;;;;4897789;29;20055;-69
2021/03/16 12:17:12;;;;;;;7.25;1.25;;;10.30;77.80;;;;;;4895895;29;20453;-69
2021/03/16 12:19:57;;;;;;;5.25;0.60;;;10.20;76.80;;;;;;4892026;29;20417;-71
2021/03/16 12:22:43;;;;;;;3.25;0.93;;;10.10;77.90;;;;;;4889426;29;20154;-69
2021/03/16 12:25:29;;;;;;;1.92;0.40;;;10.20;79.10;;;;;;4892742;29;20051;-70
2021/03/16 12:28:16;;;;;;;4.80;0.35;;;10.30;78.10;;;;;;4897260;29;20059;-70
2021/03/16 12:31:03;;;;;;;7.82;0.75;;;10.30;78.00;;;;;;4894845;29;20132;-71
2021/03/16 12:33:47;;;;;;;5.30;0.50;;;10.40;78.30;;;;;;4895049;29;20175;-70
2021/03/16 12:36:33;;;;;;;3.63;0.40;;;10.40;78.40;;;;;;4890666;29;20067;-70
2021/03/16 12:39:18;;;;;;;4.50;0.30;;;10.50;77.70;;;;;;4887620;29;20123;-70
2021/03/16 12:42:04;;;;;;;2.95;0.60;;;10.50;77.60;;;;;;4882261;29;20059;-70
2021/03/16 12:44:50;;;;;;;2.58;0.30;;;10.50;77.10;;;;;;4890055;29;20064;-69
2021/03/16 12:47:35;;;;;;;3.47;0.50;;;10.60;77.10;;;;;;4892062;29;20112;-69
2021/03/16 12:50:21;;;;;;;4.85;0.50;;;10.70;77.30;;;;;;4892942;29;20433;-69
2021/03/16 12:53:06;;;;;;;3.08;0.30;;;10.80;77.70;;;;;;4876984;29;20067;-69
2021/03/16 12:55:51;;;;;;;5.78;0.57;;;10.90;78.10;;;;;;4887207;29;20068;-70
2021/03/16 12:58:36;;;;;;;4.85;0.60;;;10.90;76.80;;;;;;4891174;29;20052;-70
2021/03/16 13:01:21;;;;;;;2.10;0.52;;;10.90;76.90;;;;;;4889355;29;20055;-69
2021/03/16 13:04:07;;;;;;;6.53;0.73;;;10.90;76.20;;;;;;4893367;29;20087;-70
2021/03/16 13:06:52;;;;;;;7.55;0.70;;;10.80;74.80;;;;;;4890788;29;20389;-73
2021/03/16 13:09:37;;;;;;;2.75;0.90;;;10.70;74.80;;;;;;4892122;29;20055;-73
2021/03/16 13:12:22;;;;;;;5.13;0.50;;;10.70;74.20;;;;;;4894541;29;20051;-77
2021/03/16 13:15:09;;;;;;;3.97;0.63;;;10.60;75.40;;;;;;4887517;29;20071;-74
2021/03/16 13:17:54;;;;;;;0.80;0.40;;;10.50;76.00;;;;;;4895082;29;20051;-73
2021/03/16 13:20:41;;;;;;;6.47;1.48;;;10.40;76.50;;;;;;4888802;29;20398;-74
2021/03/16 13:23:26;;;;;;;3.30;0.85;;;10.20;76.90;;;;;;4890379;29;20063;-75
2021/03/16 13:26:11;;;;;;;2.78;0.70;;;10.00;76.90;;;;;;4895179;29;20891;-73
2021/03/16 13:28:57;;;;;;;5.28;1.05;;;10.00;77.90;;;;;;4890822;29;20055;-75
2021/03/16 13:31:42;;;;;;;6.38;0.77;;;9.90;78.50;;;;;;4895827;29;20059;-74
2021/03/16 13:34:28;;;;;;;2.88;0.63;;;9.90;77.70;;;;;;4879660;29;20176;-74
2021/03/16 13:37:14;;;;;;;2.53;0.50;;;9.90;78.50;;;;;;4896089;29;20122;-74
2021/03/16 13:39:59;;;;;;;2.10;0.50;;;10.00;79.00;;;;;;4887528;29;20080;-70
2021/03/16 13:42:44;;;;;;;2.22;0.50;;;9.90;78.90;;;;;;4895663;29;20052;-70
2021/03/16 13:45:29;;;;;;;3.47;0.40;;;9.90;79.60;;;;;;4895255;29;20519;-70
2021/03/16 13:48:14;;;;;;;4.03;0.95;;;9.80;79.80;;;;;;4894503;29;20047;-70
2021/03/16 13:51:00;;;;;;;4.28;1.27;;;9.70;80.20;;;;;;4895084;29;20055;-70
2021/03/16 13:53:45;;;;;;;4.40;0.70;;;9.50;80.50;;;;;;4882216;29;20059;-70
2021/03/16 13:56:30;;;;;;;4.20;0.80;;;9.30;81.40;;;;;;4892813;29;20077;-70
2021/03/16 13:59:16;;;;;;;2.70;0.60;;;8.90;81.70;;;;;;4895327;29;20071;-70
2021/03/16 14:02:01;;;;;;;4.90;0.90;;;8.60;83.00;;;;;;4885877;29;20409;-70
2021/03/16 14:04:46;;;;;;;3.20;0.65;;;8.30;83.90;;;;;;4895083;29;20047;-70
2021/03/16 14:07:33;;;;;;;5.82;0.90;;;8.00;84.90;;;;;;4895740;29;20063;-71
2021/03/16 14:10:18;;;;;;;3.90;0.82;;;7.80;85.90;;;;;;4893303;29;20124;-71
2021/03/16 14:13:04;;;;;;;4.80;0.82;;;7.70;86.50;;;;;;4896082;29;20063;-70